createdAt,value
2018-04-24T00:01:26.739Z,10.71
2018-04-24T00:02:54.028Z,10.67
2018-04-24T00:04:21.318Z,10.71
2018-04-24T00:05:49.511Z,10.75
2018-04-24T00:07:15.894Z,10.76
2018-04-24T00:08:43.205Z,10.71
2018-04-24T00:10:11.631Z,10.74
2018-04-24T00:11:39.010Z,10.77
2018-04-24T00:13:05.494Z,10.79
2018-04-24T00:14:33.910Z,10.82
2018-04-24T00:16:00.324Z,10.86
2018-04-24T00:17:28.728Z,10.83
2018-04-24T00:18:56.150Z,10.85
2018-04-24T00:20:22.464Z,10.86
2018-04-24T00:21:49.753Z,10.80
2018-04-24T00:23:17.160Z,10.80
2018-04-24T00:24:44.324Z,10.83
2018-04-24T00:26:12.647Z,10.84
2018-04-24T00:27:38.973Z,10.85
2018-04-24T00:29:06.219Z,10.87
2018-04-24T00:30:33.512Z,10.88
2018-04-24T00:32:00.896Z,10.89
2018-04-24T00:33:28.394Z,10.86
2018-04-24T00:34:55.725Z,10.80
2018-04-24T00:36:24.227Z,10.78
2018-04-24T00:37:50.548Z,10.78
2018-04-24T00:39:18.637Z,10.79
2018-04-24T00:40:45.825Z,10.82
2018-04-24T00:42:12.270Z,10.82
2018-04-24T00:43:40.563Z,10.84
2018-04-24T00:45:07.016Z,10.85
2018-04-24T00:46:34.275Z,10.88
2018-04-24T00:48:02.511Z,10.86
2018-04-24T00:49:28.889Z,10.86
2018-04-24T00:50:57.036Z,10.85
2018-04-24T00:52:24.400Z,10.85
2018-04-24T00:53:51.630Z,10.86
2018-04-24T00:55:18.848Z,10.87
2018-04-24T00:56:44.964Z,10.88
2018-04-24T00:58:12.505Z,10.89
2018-04-24T00:59:39.642Z,10.90
2018-04-24T01:01:06.846Z,10.90
2018-04-24T01:02:34.304Z,10.89
2018-04-24T01:04:02.382Z,10.89
2018-04-24T01:05:29.639Z,10.89
2018-04-24T01:06:55.899Z,10.90
2018-04-24T01:08:24.211Z,10.88
2018-04-24T01:09:50.588Z,10.88
2018-04-24T01:11:18.733Z,10.88
2018-04-24T01:12:45.014Z,10.89
2018-04-24T01:14:12.195Z,10.88
2018-04-24T01:15:40.626Z,10.88
2018-04-24T01:17:07.463Z,10.88
2018-04-24T01:18:33.824Z,10.88
2018-04-24T01:20:01.063Z,10.88
2018-04-24T01:21:29.522Z,10.87
2018-04-24T01:22:55.756Z,10.85
2018-04-24T01:24:23.078Z,10.84
2018-04-24T01:25:51.355Z,10.84
2018-04-24T01:27:18.632Z,10.83
2018-04-24T01:28:45.768Z,10.81
2018-04-24T01:30:11.867Z,10.80
2018-04-24T01:31:40.095Z,10.80
2018-04-24T01:33:07.357Z,10.80
2018-04-24T01:34:33.755Z,10.81
2018-04-24T01:36:01.053Z,10.82
2018-04-24T01:37:29.162Z,10.84
2018-04-24T01:38:56.354Z,10.85
2018-04-24T01:40:22.833Z,10.86
2018-04-24T01:41:50.121Z,10.86
2018-04-24T01:43:17.224Z,10.88
2018-04-24T01:44:45.436Z,10.89
2018-04-24T01:46:11.814Z,10.88
2018-04-24T01:47:40.175Z,10.88
2018-04-24T01:49:07.162Z,10.90
2018-04-24T01:50:33.464Z,10.91
2018-04-24T01:52:00.891Z,10.92
2018-04-24T01:53:28.188Z,10.92
2018-04-24T01:54:55.633Z,10.92
2018-04-24T01:56:22.664Z,10.91
2018-04-24T01:57:50.723Z,10.91
2018-04-24T01:59:17.098Z,10.94
2018-04-24T02:00:44.360Z,10.95
2018-04-24T02:02:11.589Z,10.98
2018-04-24T02:03:39.806Z,10.99
2018-04-24T02:05:06.953Z,11.00
2018-04-24T02:06:33.398Z,11.01
2018-04-24T02:08:01.747Z,11.03
2018-04-24T02:09:28.013Z,11.04
2018-04-24T02:10:56.467Z,11.06
2018-04-24T02:12:23.742Z,11.07
2018-04-24T02:13:50.084Z,11.08
2018-04-24T02:15:17.515Z,11.08
2018-04-24T02:16:45.657Z,11.09
2018-04-24T02:18:11.931Z,11.10
2018-04-24T02:19:40.222Z,11.08
2018-04-24T02:21:06.582Z,11.08
2018-04-24T02:22:33.811Z,11.06
2018-04-24T02:24:01.749Z,11.05
2018-04-24T02:25:28.886Z,11.04
2018-04-24T02:26:56.125Z,11.03
2018-04-24T02:28:22.598Z,11.04
2018-04-24T02:29:50.043Z,11.03
2018-04-24T02:31:17.168Z,11.03
2018-04-24T02:32:44.311Z,11.03
2018-04-24T02:34:11.720Z,11.04
2018-04-24T02:35:38.936Z,11.02
2018-04-24T02:37:06.376Z,11.02
2018-04-24T02:38:33.454Z,11.01
2018-04-24T02:40:01.011Z,11.00
2018-04-24T02:41:29.280Z,10.98
2018-04-24T02:42:55.684Z,10.97
2018-04-24T02:44:23.931Z,10.96
2018-04-24T02:45:50.966Z,10.95
2018-04-24T02:47:18.330Z,10.91
2018-04-24T02:48:45.572Z,10.87
2018-04-24T02:50:17.827Z,10.88
2018-04-24T02:51:39.121Z,10.90
2018-04-24T02:53:07.357Z,10.89
2018-04-24T02:54:33.851Z,10.88
2018-04-24T02:56:02.121Z,10.85
2018-04-24T02:57:28.551Z,10.85
2018-04-24T02:58:56.584Z,10.84
2018-04-24T03:00:23.017Z,10.82
2018-04-24T03:01:51.470Z,10.82
2018-04-24T03:03:17.541Z,10.82
2018-04-24T03:04:45.729Z,10.83
2018-04-24T03:06:12.945Z,10.81
2018-04-24T03:07:40.275Z,10.79
2018-04-24T03:09:06.609Z,10.81
2018-04-24T03:10:34.004Z,10.80
2018-04-24T03:12:01.290Z,10.81
2018-04-24T03:13:28.689Z,10.84
2018-04-24T03:14:56.045Z,10.86
2018-04-24T03:16:24.294Z,10.89
2018-04-24T03:17:50.516Z,10.90
2018-04-24T03:19:17.830Z,10.89
2018-04-24T03:20:46.183Z,10.89
2018-04-24T03:22:13.503Z,10.91
2018-04-24T03:23:39.853Z,10.91
2018-04-24T03:25:08.123Z,10.91
2018-04-24T03:26:35.645Z,10.90
2018-04-24T03:28:01.783Z,10.89
2018-04-24T03:29:30.088Z,10.89
2018-04-24T03:30:57.458Z,10.89
2018-04-24T03:32:23.852Z,10.88
2018-04-24T03:33:52.156Z,10.88
2018-04-24T03:35:19.166Z,10.89
2018-04-24T03:36:45.381Z,10.89
2018-04-24T03:38:13.643Z,10.89
2018-04-24T03:39:41.017Z,10.89
2018-04-24T03:41:07.048Z,10.88
2018-04-24T03:42:34.618Z,10.89
2018-04-24T03:44:01.885Z,10.87
2018-04-24T03:45:29.412Z,10.86
2018-04-24T03:46:56.820Z,10.86
2018-04-24T03:48:24.177Z,10.86
2018-04-24T03:49:52.530Z,10.85
2018-04-24T03:51:19.547Z,10.86
2018-04-24T03:52:45.586Z,10.88
2018-04-24T03:54:12.759Z,10.89
2018-04-24T03:55:40.979Z,10.89
2018-04-24T03:57:08.457Z,10.89
2018-04-24T03:58:34.335Z,10.90
2018-04-24T04:00:02.515Z,10.90
2018-04-24T04:01:28.957Z,10.90
2018-04-24T04:02:56.007Z,10.92
2018-04-24T04:04:24.226Z,10.94
2018-04-24T04:05:50.511Z,10.93
2018-04-24T04:07:18.844Z,10.96
2018-04-24T04:08:44.982Z,10.97
2018-04-24T04:10:12.329Z,10.95
2018-04-24T04:11:39.747Z,10.97
2018-04-24T04:13:07.332Z,10.97
2018-04-24T04:14:34.731Z,10.97
2018-04-24T04:17:30.118Z,10.97
2018-04-24T04:18:56.521Z,10.98
2018-04-24T04:20:24.609Z,10.98
2018-04-24T04:21:50.894Z,10.97
2018-04-24T04:23:18.118Z,10.97
2018-04-24T04:24:45.114Z,10.99
2018-04-24T04:26:13.540Z,11.01
2018-04-24T04:27:40.507Z,11.02
2018-04-24T04:29:06.708Z,11.04
2018-04-24T04:30:35.169Z,11.04
2018-04-24T04:32:02.700Z,11.06
2018-04-24T04:33:29.167Z,11.06
2018-04-24T04:34:56.390Z,11.06
2018-04-24T04:36:23.816Z,11.07
2018-04-24T04:37:51.169Z,11.08
2018-04-24T04:39:19.306Z,11.08
2018-04-24T04:40:45.506Z,11.09
2018-04-24T04:42:12.713Z,11.11
2018-04-24T04:43:40.087Z,11.12
2018-04-24T04:45:08.266Z,11.14
2018-04-24T04:46:35.222Z,11.16
2018-04-24T04:48:01.393Z,11.17
2018-04-24T04:49:28.393Z,11.19
2018-04-24T04:50:56.280Z,11.20
2018-04-24T04:52:23.756Z,11.22
2018-04-24T04:53:49.886Z,11.23
2018-04-24T04:55:18.166Z,11.25
2018-04-24T04:56:44.289Z,11.27
2018-04-24T04:58:12.715Z,11.27
2018-04-24T04:59:39.957Z,11.27
2018-04-24T05:02:34.550Z,11.27
2018-04-24T05:04:01.813Z,11.28
2018-04-24T05:05:29.158Z,11.29
2018-04-24T05:06:56.576Z,11.31
2018-04-24T05:08:22.860Z,11.33
2018-04-24T05:09:51.268Z,11.33
2018-04-24T05:11:17.602Z,11.34
2018-04-24T05:12:45.863Z,11.35
2018-04-24T05:14:12.213Z,11.37
2018-04-24T05:15:38.968Z,11.39
2018-04-24T05:17:05.927Z,11.41
2018-04-24T05:18:33.067Z,11.44
2018-04-24T05:20:01.208Z,11.45
2018-04-24T05:21:27.811Z,11.46
2018-04-24T05:22:53.633Z,11.48
2018-04-24T05:24:21.699Z,11.51
2018-04-24T05:25:48.783Z,11.52
2018-04-24T05:27:15.034Z,11.52
2018-04-24T05:28:42.364Z,11.52
2018-04-24T05:30:09.643Z,11.53
2018-04-24T05:31:37.955Z,11.55
2018-04-24T05:33:05.241Z,11.58
2018-04-24T05:34:31.489Z,11.59
2018-04-24T05:35:58.682Z,11.60
2018-04-24T05:37:26.028Z,11.62
2018-04-24T05:38:54.169Z,11.64
2018-04-24T05:40:20.133Z,11.66
2018-04-24T05:41:48.289Z,11.67
2018-04-24T05:43:14.233Z,11.68
2018-04-24T05:44:41.099Z,11.69
2018-04-24T05:46:09.395Z,11.71
2018-04-24T05:47:36.871Z,11.73
2018-04-24T05:49:03.187Z,11.73
2018-04-24T05:50:31.170Z,11.72
2018-04-24T05:51:58.408Z,11.74
2018-04-24T05:53:24.878Z,11.76
2018-04-24T05:54:52.076Z,11.79
2018-04-24T05:56:20.168Z,11.83
2018-04-24T05:57:46.403Z,11.86
2018-04-24T05:59:13.594Z,11.88
2018-04-24T06:00:42.171Z,11.88
2018-04-24T06:02:09.362Z,11.90
2018-04-24T06:03:35.417Z,11.91
2018-04-24T06:05:02.662Z,11.94
2018-04-24T06:06:30.864Z,11.97
2018-04-24T06:07:58.078Z,12.00
2018-04-24T06:09:25.321Z,12.04
2018-04-24T06:10:52.534Z,12.09
2018-04-24T06:12:19.651Z,12.15
2018-04-24T06:13:45.536Z,12.19
2018-04-24T06:15:13.815Z,12.27
2018-04-24T06:16:39.944Z,12.32
2018-04-24T06:18:07.305Z,12.34
2018-04-24T06:19:34.486Z,12.37
2018-04-24T06:21:02.952Z,12.40
2018-04-24T06:22:28.939Z,12.43
2018-04-24T06:23:56.787Z,12.46
2018-04-24T06:25:23.044Z,12.48
2018-04-24T06:26:50.180Z,12.49
2018-04-24T06:28:17.480Z,12.50
2018-04-24T06:29:45.572Z,12.53
2018-04-24T06:31:11.793Z,12.55
2018-04-24T06:32:39.733Z,12.58
2018-04-24T06:34:05.981Z,12.58
2018-04-24T06:35:33.339Z,12.61
2018-04-24T06:37:00.088Z,12.63
2018-04-24T06:38:27.347Z,12.65
2018-04-24T06:39:54.411Z,12.67
2018-04-24T06:41:21.748Z,12.69
2018-04-24T06:42:48.629Z,12.71
2018-04-24T06:44:15.649Z,12.73
2018-04-24T06:45:42.501Z,12.76
2018-04-24T06:47:09.803Z,12.78
2018-04-24T06:48:37.018Z,12.79
2018-04-24T06:50:04.162Z,12.82
2018-04-24T06:51:32.235Z,12.83
2018-04-24T06:52:59.417Z,12.85
2018-04-24T06:54:25.590Z,12.86
2018-04-24T06:55:52.705Z,12.88
2018-04-24T06:57:20.926Z,12.89
2018-04-24T06:58:48.016Z,12.91
2018-04-24T07:00:14.981Z,12.92
2018-04-24T07:01:40.849Z,12.94
2018-04-24T07:03:09.029Z,12.95
2018-04-24T07:04:35.203Z,12.95
2018-04-24T07:06:02.371Z,12.97
2018-04-24T07:07:31.006Z,12.97
2018-04-24T07:08:57.201Z,12.98
2018-04-24T07:10:24.707Z,13.00
2018-04-24T07:11:53.006Z,12.99
2018-04-24T07:13:19.166Z,13.00
2018-04-24T07:14:47.376Z,13.00
2018-04-24T07:16:13.775Z,13.03
2018-04-24T07:17:42.077Z,13.04
2018-04-24T07:19:09.606Z,13.05
2018-04-24T07:20:46.467Z,13.10
2018-04-24T07:22:12.693Z,13.14
2018-04-24T07:23:41.107Z,13.17
2018-04-24T07:25:07.504Z,13.18
2018-04-24T07:26:34.979Z,13.21
2018-04-24T07:28:02.235Z,13.23
2018-04-24T07:29:30.825Z,13.27
2018-04-24T07:30:58.056Z,13.29
2018-04-24T07:32:24.458Z,13.31
2018-04-24T07:33:51.754Z,13.29
2018-04-24T07:35:19.905Z,13.31
2018-04-24T07:36:46.199Z,13.33
2018-04-24T07:38:14.513Z,13.37
2018-04-24T07:39:40.944Z,13.41
2018-04-24T07:41:08.410Z,13.43
2018-04-24T07:42:36.827Z,13.48
2018-04-24T07:44:03.028Z,13.52
2018-04-24T07:45:30.379Z,13.55
2018-04-24T07:46:57.798Z,13.55
2018-04-24T07:48:25.210Z,13.54
2018-04-24T07:49:52.630Z,13.56
2018-04-24T07:51:19.950Z,13.60
2018-04-24T07:52:48.298Z,13.61
2018-04-24T07:54:15.456Z,13.60
2018-04-24T07:55:41.701Z,13.63
2018-04-24T07:57:10.361Z,13.62
2018-04-24T07:58:37.596Z,13.63
2018-04-24T08:00:03.872Z,13.69
2018-04-24T08:01:32.160Z,13.75
2018-04-24T08:02:58.568Z,13.82
2018-04-24T08:04:25.917Z,13.88
2018-04-24T08:05:54.412Z,13.94
2018-04-24T08:07:21.827Z,13.97
2018-04-24T08:08:48.919Z,13.95
2018-04-24T08:10:15.251Z,13.87
2018-04-24T08:11:42.513Z,13.78
2018-04-24T08:13:10.917Z,13.67
2018-04-24T08:14:38.279Z,13.63
2018-04-24T08:16:04.682Z,13.63
2018-04-24T08:17:32.107Z,13.63
2018-04-24T08:18:59.463Z,13.64
2018-04-24T08:20:26.762Z,13.67
2018-04-24T08:21:55.191Z,13.68
2018-04-24T08:23:22.566Z,13.67
2018-04-24T08:24:49.700Z,13.70
2018-04-24T08:26:16.952Z,13.69
2018-04-24T08:27:44.451Z,13.72
2018-04-24T08:29:10.640Z,13.73
2018-04-24T08:30:38.985Z,13.71
2018-04-24T08:32:05.249Z,13.69
2018-04-24T08:33:33.803Z,13.68
2018-04-24T08:35:00.232Z,13.68
2018-04-24T08:36:27.757Z,13.70
2018-04-24T08:37:55.087Z,13.72
2018-04-24T08:39:23.607Z,13.73
2018-04-24T08:40:49.858Z,13.75
2018-04-24T08:42:18.280Z,13.78
2018-04-24T08:43:44.308Z,13.80
2018-04-24T08:45:11.678Z,13.80
2018-04-24T08:46:38.933Z,13.82
2018-04-24T08:48:07.562Z,13.81
2018-04-24T08:49:34.829Z,13.81
2018-04-24T08:51:01.180Z,13.78
2018-04-24T08:52:29.620Z,13.79
2018-04-24T08:53:57.076Z,13.78
2018-04-24T08:55:23.274Z,13.78
2018-04-24T08:56:50.583Z,13.77
2018-04-24T08:58:17.769Z,13.77
2018-04-24T08:59:45.037Z,13.76
2018-04-24T09:01:13.438Z,13.73
2018-04-24T09:02:39.712Z,13.66
2018-04-24T09:04:08.219Z,13.67
2018-04-24T09:05:35.456Z,13.71
2018-04-24T09:07:02.460Z,13.77
2018-04-24T09:08:28.975Z,13.81
2018-04-24T09:09:57.241Z,13.81
2018-04-24T09:11:24.471Z,13.83
2018-04-24T09:12:50.846Z,13.85
2018-04-24T09:14:18.149Z,13.84
2018-04-24T09:15:45.474Z,13.81
2018-04-24T09:17:12.582Z,13.78
2018-04-24T09:18:39.985Z,13.73
2018-04-24T09:20:07.488Z,13.68
2018-04-24T09:21:34.901Z,13.62
2018-04-24T09:23:02.025Z,13.55
2018-04-24T09:24:29.266Z,13.51
2018-04-24T09:25:57.727Z,13.52
2018-04-24T09:27:25.072Z,13.54
2018-04-24T09:28:51.210Z,13.52
2018-04-24T09:30:19.686Z,13.49
2018-04-24T09:31:45.877Z,13.46
2018-04-24T09:33:13.381Z,13.45
2018-04-24T09:34:40.833Z,13.44
2018-04-24T09:36:09.012Z,13.39
2018-04-24T09:37:35.413Z,13.38
2018-04-24T09:39:02.889Z,13.36
2018-04-24T09:40:31.323Z,13.36
2018-04-24T09:41:57.487Z,13.38
2018-04-24T09:43:25.670Z,13.40
2018-04-24T09:44:52.096Z,13.42
2018-04-24T09:46:19.368Z,13.45
2018-04-24T09:47:46.619Z,13.49
2018-04-24T09:49:15.011Z,13.55
2018-04-24T09:50:41.314Z,13.58
2018-04-24T09:52:08.686Z,13.60
2018-04-24T09:53:36.066Z,13.62
2018-04-24T09:55:04.735Z,13.63
2018-04-24T09:56:32.082Z,13.62
2018-04-24T09:57:59.518Z,13.63
2018-04-24T09:59:25.687Z,13.63
2018-04-24T10:00:52.906Z,13.64
2018-04-24T10:02:21.405Z,13.66
2018-04-24T10:03:48.618Z,13.71
2018-04-24T10:05:14.778Z,13.76
2018-04-24T10:06:42.287Z,13.79
2018-04-24T10:08:09.612Z,13.84
2018-04-24T10:09:37.013Z,13.85
2018-04-24T10:11:05.370Z,13.84
2018-04-24T10:12:32.586Z,13.85
2018-04-24T10:13:59.105Z,13.84
2018-04-24T10:15:27.602Z,13.79
2018-04-24T10:16:53.941Z,13.77
2018-04-24T10:18:22.232Z,13.75
2018-04-24T10:19:49.745Z,13.76
2018-04-24T10:21:16.913Z,13.79
2018-04-24T10:22:43.345Z,13.80
2018-04-24T10:24:11.731Z,13.85
2018-04-24T10:25:39.175Z,13.91
2018-04-24T10:27:05.388Z,13.93
2018-04-24T10:28:33.778Z,13.92
2018-04-24T10:30:00.305Z,13.87
2018-04-24T10:31:27.612Z,13.81
2018-04-24T10:32:55.961Z,13.78
2018-04-24T10:34:23.449Z,13.75
2018-04-24T10:35:50.882Z,13.72
2018-04-24T10:37:17.353Z,13.76
2018-04-24T10:38:44.720Z,13.77
2018-04-24T10:40:12.109Z,13.80
2018-04-24T10:41:40.529Z,13.82
2018-04-24T10:43:08.114Z,13.82
2018-04-24T10:44:34.477Z,13.79
2018-04-24T10:46:01.742Z,13.77
2018-04-24T10:47:29.123Z,13.77
2018-04-24T10:48:56.487Z,13.79
2018-04-24T10:50:24.791Z,13.83
2018-04-24T10:51:51.184Z,13.85
2018-04-24T10:53:18.407Z,13.85
2018-04-24T10:54:46.534Z,13.87
2018-04-24T10:56:12.630Z,13.90
2018-04-24T10:57:41.079Z,13.86
2018-04-24T10:59:07.524Z,13.82
2018-04-24T11:00:35.951Z,13.78
2018-04-24T11:02:02.237Z,13.78
2018-04-24T11:03:29.421Z,13.84
2018-04-24T11:04:56.919Z,13.93
2018-04-24T11:06:24.443Z,14.04
2018-04-24T11:07:52.856Z,14.10
2018-04-24T11:09:20.133Z,14.16
2018-04-24T11:10:47.244Z,14.19
2018-04-24T11:12:13.682Z,14.18
2018-04-24T11:13:42.086Z,14.20
2018-04-24T11:15:09.632Z,14.20
2018-04-24T11:16:37.070Z,14.21
2018-04-24T11:18:03.542Z,14.19
2018-04-24T11:19:31.812Z,14.17
2018-04-24T11:20:59.388Z,14.10
2018-04-24T11:22:25.731Z,14.09
2018-04-24T11:23:53.081Z,14.05
2018-04-24T11:25:20.430Z,14.03
2018-04-24T11:26:48.875Z,14.02
2018-04-24T11:28:16.034Z,14.04
2018-04-24T11:29:42.280Z,14.04
2018-04-24T11:31:09.764Z,13.99
2018-04-24T11:32:38.128Z,13.92
2018-04-24T11:34:04.590Z,13.81
2018-04-24T11:35:32.065Z,13.82
2018-04-24T11:36:59.562Z,13.83
2018-04-24T11:38:26.904Z,13.83
2018-04-24T11:39:55.290Z,13.84
2018-04-24T11:41:21.646Z,13.82
2018-04-24T11:42:48.962Z,13.85
2018-04-24T11:44:16.242Z,13.87
2018-04-24T11:45:43.300Z,13.88
2018-04-24T11:47:10.643Z,13.89
2018-04-24T11:48:38.262Z,13.90
2018-04-24T11:50:05.659Z,13.87
2018-04-24T11:51:33.809Z,13.84
2018-04-24T11:53:00.213Z,13.84
2018-04-24T11:54:27.575Z,13.84
2018-04-24T11:55:54.866Z,13.84
2018-04-24T11:57:22.374Z,13.82
2018-04-24T11:58:49.676Z,13.77
2018-04-24T12:00:16.930Z,13.75
2018-04-24T12:01:45.376Z,13.72
2018-04-24T12:03:11.916Z,13.68
2018-04-24T12:04:39.236Z,13.64
2018-04-24T12:06:07.715Z,13.63
2018-04-24T12:07:34.216Z,13.62
2018-04-24T12:09:02.629Z,13.58
2018-04-24T12:10:29.791Z,13.55
2018-04-24T12:11:57.149Z,13.58
2018-04-24T12:13:23.521Z,13.59
2018-04-24T12:14:50.930Z,13.60
2018-04-24T12:16:19.325Z,13.58
2018-04-24T12:17:45.678Z,13.44
2018-04-24T12:19:12.967Z,13.40
2018-04-24T12:20:41.247Z,13.41
2018-04-24T12:22:08.732Z,13.44
2018-04-24T12:23:36.018Z,13.48
2018-04-24T12:25:02.400Z,13.52
2018-04-24T12:26:29.759Z,13.55
2018-04-24T12:27:57.781Z,13.59
2018-04-24T12:29:25.069Z,13.55
2018-04-24T12:30:51.468Z,13.47
2018-04-24T12:32:19.935Z,13.44
2018-04-24T12:33:46.341Z,13.44
2018-04-24T12:35:14.775Z,13.38
2018-04-24T12:36:42.241Z,13.35
2018-04-24T12:38:08.632Z,13.37
2018-04-24T12:39:35.979Z,13.42
2018-04-24T12:41:04.355Z,13.43
2018-04-24T12:42:30.639Z,13.40
2018-04-24T12:43:58.098Z,13.41
2018-04-24T12:45:26.368Z,13.41
2018-04-24T12:46:52.794Z,13.43
2018-04-24T12:48:20.017Z,13.46
2018-04-24T12:49:47.231Z,13.43
2018-04-24T12:51:14.275Z,13.42
2018-04-24T12:52:41.616Z,13.38
2018-04-24T12:54:08.944Z,13.35
2018-04-24T12:55:37.176Z,13.37
2018-04-24T12:57:03.574Z,13.35
2018-04-24T12:58:31.877Z,13.33
2018-04-24T12:59:59.274Z,13.34
2018-04-24T13:01:25.385Z,13.37
2018-04-24T13:02:52.712Z,13.39
2018-04-24T13:04:20.023Z,13.37
2018-04-24T13:05:48.522Z,13.33
2018-04-24T13:07:15.720Z,13.30
2018-04-24T13:08:42.954Z,13.29
2018-04-24T13:10:09.189Z,13.27
2018-04-24T13:11:36.334Z,13.24
2018-04-24T13:13:03.614Z,13.20
2018-04-24T13:14:32.074Z,13.17
2018-04-24T13:15:59.561Z,13.17
2018-04-24T13:17:25.961Z,13.10
2018-04-24T13:18:54.143Z,13.01
2018-04-24T13:20:21.460Z,12.99
2018-04-24T13:21:48.761Z,12.97
2018-04-24T13:23:15.056Z,12.93
2018-04-24T13:24:43.389Z,12.89
2018-04-24T13:26:10.615Z,12.82
2018-04-24T13:27:40.100Z,12.79
2018-04-24T13:29:04.061Z,12.72
2018-04-24T13:30:32.260Z,12.71
2018-04-24T13:31:58.561Z,12.75
2018-04-24T13:33:26.871Z,12.81
2018-04-24T13:34:54.111Z,12.84
2018-04-24T13:36:21.606Z,12.84
2018-04-24T13:37:47.791Z,12.90
2018-04-24T13:39:16.102Z,12.94
2018-04-24T13:40:43.489Z,12.95
2018-04-24T13:42:09.666Z,12.96
2018-04-24T13:43:37.024Z,12.96
2018-04-24T13:45:05.469Z,12.95
2018-04-24T13:46:31.785Z,12.95
2018-04-24T13:47:59.190Z,12.94
2018-04-24T13:49:26.124Z,12.87
2018-04-24T13:50:54.264Z,12.81
2018-04-24T13:52:20.627Z,12.77
2018-04-24T13:53:48.907Z,12.77
2018-04-24T13:55:16.093Z,12.79
2018-04-24T13:56:43.655Z,12.84
2018-04-24T13:58:09.874Z,12.87
2018-04-24T13:59:37.294Z,12.88
2018-04-24T14:01:05.681Z,12.90
2018-04-24T14:02:31.873Z,12.92
2018-04-24T14:04:00.207Z,12.90
2018-04-24T14:05:26.690Z,12.94
2018-04-24T14:06:55.019Z,12.96
2018-04-24T14:08:21.193Z,12.96
2018-04-24T14:09:49.635Z,12.95
2018-04-24T14:11:16.682Z,12.96
2018-04-24T14:12:43.039Z,13.01
2018-04-24T14:14:11.368Z,13.04
2018-04-24T14:15:38.811Z,13.09
2018-04-24T14:17:06.266Z,13.15
2018-04-24T14:18:32.614Z,13.20
2018-04-24T14:19:59.965Z,13.26
2018-04-24T14:21:28.399Z,13.32
2018-04-24T14:22:54.508Z,13.33
2018-04-24T14:24:21.907Z,13.29
2018-04-24T14:25:49.388Z,13.30
2018-04-24T14:27:16.682Z,13.29
2018-04-24T14:28:45.153Z,13.29
2018-04-24T14:30:12.337Z,13.30
2018-04-24T14:31:39.658Z,13.33
2018-04-24T14:33:06.947Z,13.36
2018-04-24T14:34:33.354Z,13.37
2018-04-24T14:36:01.806Z,13.41
2018-04-24T14:37:28.176Z,13.43
2018-04-24T14:38:55.683Z,13.44
2018-04-24T14:40:24.044Z,13.48
2018-04-24T14:41:51.392Z,13.51
2018-04-24T14:43:18.692Z,13.53
2018-04-24T14:44:44.865Z,13.58
2018-04-24T14:46:13.208Z,13.59
2018-04-24T14:47:39.535Z,13.54
2018-04-24T14:49:08.136Z,13.55
2018-04-24T14:50:37.462Z,13.57
2018-04-24T14:52:01.679Z,13.55
2018-04-24T14:53:28.989Z,13.56
2018-04-24T14:54:56.317Z,13.55
2018-04-24T14:56:24.673Z,13.54
2018-04-24T14:57:50.940Z,13.49
2018-04-24T14:59:19.310Z,13.50
2018-04-24T15:00:46.532Z,13.48
2018-04-24T15:02:13.837Z,13.48
2018-04-24T15:03:40.376Z,13.51
2018-04-24T15:05:08.585Z,13.51
2018-04-24T15:06:36.078Z,13.55
2018-04-24T15:08:02.301Z,13.55
2018-04-24T15:09:29.674Z,13.55
2018-04-24T15:10:57.005Z,13.51
2018-04-24T15:12:24.449Z,13.49
2018-04-24T15:13:52.968Z,13.51
2018-04-24T15:15:19.255Z,13.51
2018-04-24T15:16:46.491Z,13.52
2018-04-24T15:18:13.790Z,13.52
2018-04-24T15:19:42.088Z,13.54
2018-04-24T15:21:08.526Z,13.59
2018-04-24T15:22:35.842Z,13.60
2018-04-24T15:24:03.147Z,13.64
2018-04-24T15:25:30.511Z,13.62
2018-04-24T15:26:58.829Z,13.63
2018-04-24T15:28:26.294Z,13.64
2018-04-24T15:29:52.583Z,13.64
2018-04-24T15:31:19.961Z,13.62
2018-04-24T15:32:48.204Z,13.61
2018-04-24T15:34:15.468Z,13.60
2018-04-24T15:35:41.921Z,13.62
2018-04-24T15:37:09.490Z,13.61
2018-04-24T15:38:36.920Z,13.54
2018-04-24T15:40:05.397Z,13.50
2018-04-24T15:41:31.769Z,13.50
2018-04-24T15:43:00.129Z,13.52
2018-04-24T15:44:26.590Z,13.53
2018-04-24T15:45:54.945Z,13.52
2018-04-24T15:47:21.361Z,13.52
2018-04-24T15:48:49.860Z,13.49
2018-04-24T15:50:17.094Z,13.48
2018-04-24T15:51:44.555Z,13.48
2018-04-24T15:53:11.046Z,13.46
2018-04-24T15:54:38.392Z,13.43
2018-04-24T15:56:06.816Z,13.43
2018-04-24T15:57:33.282Z,13.45
2018-04-24T15:59:01.659Z,13.43
2018-04-24T16:00:28.116Z,13.44
2018-04-24T16:01:55.252Z,13.44
2018-04-24T16:03:22.665Z,13.42
2018-04-24T16:04:50.753Z,13.45
2018-04-24T16:06:17.168Z,13.48
2018-04-24T16:07:45.109Z,13.50
2018-04-24T16:09:11.566Z,13.47
2018-04-24T16:10:39.035Z,13.40
2018-04-24T16:12:06.454Z,13.38
2018-04-24T16:13:34.877Z,13.40
2018-04-24T16:15:02.269Z,13.38
2018-04-24T16:16:28.458Z,13.35
2018-04-24T16:17:56.789Z,13.36
2018-04-24T16:19:23.162Z,13.32
2018-04-24T16:20:50.483Z,13.32
2018-04-24T16:22:18.890Z,13.33
2018-04-24T16:23:45.065Z,13.30
2018-04-24T16:25:13.466Z,13.31
2018-04-24T16:26:40.734Z,13.31
2018-04-24T16:28:07.108Z,13.34
2018-04-24T16:29:34.513Z,13.37
2018-04-24T16:31:01.787Z,13.41
2018-04-24T16:32:29.280Z,13.42
2018-04-24T16:33:57.809Z,13.45
2018-04-24T16:35:23.988Z,13.45
2018-04-24T16:36:51.343Z,13.43
2018-04-24T16:38:18.551Z,13.44
2018-04-24T16:39:46.792Z,13.45
2018-04-24T16:41:14.085Z,13.49
2018-04-24T16:42:40.412Z,13.54
2018-04-24T16:44:07.789Z,13.58
2018-04-24T16:45:36.186Z,13.60
2018-04-24T16:47:02.575Z,13.54
2018-04-24T16:48:30.981Z,13.49
2018-04-24T16:49:58.372Z,13.49
2018-04-24T16:51:24.772Z,13.50
2018-04-24T16:52:53.238Z,13.52
2018-04-24T16:54:19.826Z,13.54
2018-04-24T16:55:48.094Z,13.55
2018-04-24T16:57:14.283Z,13.58
2018-04-24T16:58:42.686Z,13.57
2018-04-24T17:00:09.054Z,13.55
2018-04-24T17:01:36.374Z,13.55
2018-04-24T17:03:04.781Z,13.51
2018-04-24T17:04:31.153Z,13.48
2018-04-24T17:05:58.550Z,13.45
2018-04-24T17:07:26.927Z,13.43
2018-04-24T17:08:53.308Z,13.41
2018-04-24T17:10:21.664Z,13.38
2018-04-24T17:11:48.058Z,13.32
2018-04-24T17:13:16.012Z,13.30
2018-04-24T17:14:42.579Z,13.29
2018-04-24T17:16:09.970Z,13.23
2018-04-24T17:17:37.480Z,13.17
2018-04-24T17:19:04.959Z,13.13
2018-04-24T17:20:33.319Z,13.14
2018-04-24T17:21:59.581Z,13.15
2018-04-24T17:23:26.970Z,13.16
2018-04-24T17:24:54.374Z,13.17
2018-04-24T17:26:21.907Z,13.17
2018-04-24T17:27:49.251Z,13.12
2018-04-24T17:29:16.535Z,13.12
2018-04-24T17:30:43.822Z,13.13
2018-04-24T17:32:11.145Z,13.11
2018-04-24T17:33:38.436Z,13.12
2018-04-24T17:35:06.645Z,13.11
2018-04-24T17:36:33.226Z,13.07
2018-04-24T17:38:00.562Z,13.06
2018-04-24T17:39:28.953Z,13.06
2018-04-24T17:40:55.323Z,13.04
2018-04-24T17:42:22.561Z,13.02
2018-04-24T17:43:50.882Z,12.98
2018-04-24T17:45:18.286Z,12.96
2018-04-24T17:46:44.464Z,12.96
2018-04-24T17:48:13.080Z,12.98
2018-04-24T17:49:40.336Z,12.97
2018-04-24T17:51:06.638Z,12.98
2018-04-24T17:52:33.987Z,12.99
2018-04-24T17:54:01.512Z,13.00
2018-04-24T17:55:28.948Z,13.00
2018-04-24T17:56:56.240Z,13.00
2018-04-24T17:58:24.687Z,13.01
2018-04-24T17:59:52.155Z,13.00
2018-04-24T18:01:18.366Z,12.99
2018-04-24T18:02:46.624Z,12.98
2018-04-24T18:04:13.916Z,12.95
2018-04-24T18:05:40.493Z,12.92
2018-04-24T18:07:08.786Z,12.90
2018-04-24T18:08:35.982Z,12.87
2018-04-24T18:10:02.475Z,12.85
2018-04-24T18:11:29.850Z,12.83
2018-04-24T18:12:57.850Z,12.81
2018-04-24T18:14:25.244Z,12.79
2018-04-24T18:15:51.673Z,12.77
2018-04-24T18:17:20.022Z,12.75
2018-04-24T18:18:46.364Z,12.73
2018-04-24T18:20:14.780Z,12.72
2018-04-24T18:21:41.216Z,12.71
2018-04-24T18:23:08.636Z,12.70
2018-04-24T18:24:36.025Z,12.69
2018-04-24T18:26:03.613Z,12.67
2018-04-24T18:27:30.902Z,12.64
2018-04-24T18:28:58.310Z,12.61
2018-04-24T18:30:25.792Z,12.61
2018-04-24T18:31:53.168Z,12.60
2018-04-24T18:33:20.489Z,12.58
2018-04-24T18:34:50.982Z,12.55
2018-04-24T18:36:16.240Z,12.54
2018-04-24T18:37:42.646Z,12.52
2018-04-24T18:39:10.908Z,12.51
2018-04-24T18:40:38.288Z,12.50
2018-04-24T18:42:05.695Z,12.48
2018-04-24T18:43:31.999Z,12.48
2018-04-24T18:45:00.290Z,12.47
2018-04-24T18:46:26.721Z,12.45
2018-04-24T18:47:55.254Z,12.43